createdAt,value
2024-02-08T00:01:18.520Z,8.80
2024-02-08T00:03:46.872Z,8.90
2024-02-08T00:06:16.605Z,8.73
2024-02-08T00:08:44.979Z,7.83
2024-02-08T00:11:13.412Z,9.37
2024-02-08T00:13:41.773Z,8.83
2024-02-08T00:16:12.785Z,9.73
2024-02-08T00:18:41.087Z,8.73
2024-02-08T00:21:10.972Z,7.43
2024-02-08T00:23:40.738Z,9.67
2024-02-08T00:26:09.124Z,10.30
2024-02-08T00:28:37.508Z,9.47
2024-02-08T00:31:06.757Z,9.03
2024-02-08T00:33:35.898Z,12.23
2024-02-08T00:36:04.268Z,14.23
2024-02-08T00:38:32.720Z,10.87
2024-02-08T00:41:02.510Z,11.13
2024-02-08T00:43:30.897Z,9.63
2024-02-08T00:45:59.160Z,13.20
2024-02-08T00:48:27.436Z,9.07
2024-02-08T00:50:56.193Z,9.07
2024-02-08T00:53:24.575Z,10.90
2024-02-08T00:55:53.219Z,10.37
2024-02-08T00:58:23.223Z,10.97
2024-02-08T01:00:54.636Z,13.67
2024-02-08T01:03:26.120Z,10.53
2024-02-08T01:05:54.956Z,12.90
2024-02-08T01:08:23.996Z,10.20
2024-02-08T01:10:52.399Z,10.60
2024-02-08T01:13:23.188Z,10.47
2024-02-08T01:15:51.908Z,10.70
2024-02-08T01:18:21.786Z,12.60
2024-02-08T01:20:51.216Z,12.53
2024-02-08T01:23:19.810Z,11.63
2024-02-08T01:25:48.750Z,7.20
2024-02-08T01:28:17.076Z,9.83
2024-02-08T01:30:47.381Z,13.43
2024-02-08T01:33:15.754Z,13.50
2024-02-08T01:35:44.056Z,10.30
2024-02-08T01:38:14.868Z,8.17
2024-02-08T01:40:43.665Z,10.50
2024-02-08T01:43:12.299Z,9.33
2024-02-08T01:45:42.850Z,8.93
2024-02-08T01:48:17.427Z,9.37
2024-02-08T01:50:51.154Z,8.37
2024-02-08T01:53:29.353Z,8.10
2024-02-08T01:56:02.377Z,11.90
2024-02-08T01:58:33.208Z,8.40
2024-02-08T02:01:14.758Z,10.97
2024-02-08T02:03:44.676Z,11.30
2024-02-08T02:06:15.995Z,8.43
2024-02-08T02:08:53.565Z,9.90
2024-02-08T02:11:28.942Z,7.77
2024-02-08T02:13:59.767Z,7.67
2024-02-08T02:16:28.806Z,10.80
2024-02-08T02:18:58.551Z,7.43
2024-02-08T02:21:29.412Z,9.03
2024-02-08T02:23:57.928Z,10.03
2024-02-08T02:26:27.511Z,9.17
2024-02-08T02:28:56.388Z,9.73
2024-02-08T02:31:25.839Z,7.50
2024-02-08T02:33:55.337Z,13.37
2024-02-08T02:36:23.877Z,14.03
2024-02-08T02:38:53.833Z,13.00
2024-02-08T02:41:26.863Z,11.57
2024-02-08T02:43:55.505Z,12.50
2024-02-08T02:46:24.070Z,16.33
2024-02-08T02:48:52.751Z,15.13
2024-02-08T02:51:21.283Z,14.90
2024-02-08T02:53:49.583Z,10.93
2024-02-08T02:56:20.864Z,10.83
2024-02-08T02:58:49.348Z,12.63
2024-02-08T03:01:17.893Z,16.83
2024-02-08T03:03:48.697Z,14.33
2024-02-08T03:06:17.504Z,13.80
2024-02-08T03:08:47.090Z,19.57
2024-02-08T03:11:16.340Z,13.20
2024-02-08T03:13:48.020Z,16.13
2024-02-08T03:16:18.804Z,15.10
2024-02-08T03:18:50.560Z,17.43
2024-02-08T03:21:23.385Z,12.57
2024-02-08T03:23:58.022Z,12.60
2024-02-08T03:26:27.443Z,11.97
2024-02-08T03:28:57.257Z,15.23
2024-02-08T03:31:27.648Z,14.43
2024-02-08T03:33:56.214Z,8.77
2024-02-08T03:36:25.255Z,8.43
2024-02-08T03:38:54.834Z,10.17
2024-02-08T03:41:27.395Z,10.53
2024-02-08T03:43:58.749Z,13.60
2024-02-08T03:46:28.080Z,10.73
2024-02-08T03:48:57.727Z,7.20
2024-02-08T03:51:26.113Z,9.83
2024-02-08T03:53:54.369Z,8.00
2024-02-08T03:56:27.982Z,12.93
2024-02-08T03:59:01.151Z,11.93
2024-02-08T04:01:30.043Z,12.23
2024-02-08T04:04:13.302Z,12.67
2024-02-08T04:07:01.619Z,14.53
2024-02-08T04:09:40.524Z,12.23
2024-02-08T04:12:26.645Z,17.60
2024-02-08T04:15:13.860Z,20.47
2024-02-08T04:17:59.613Z,23.70
2024-02-08T04:20:45.502Z,20.60
2024-02-08T04:23:34.313Z,30.17
2024-02-08T04:26:24.972Z,33.23
2024-02-08T04:29:12.542Z,34.57
2024-02-08T04:31:59.555Z,23.00
2024-02-08T04:34:45.278Z,14.23
2024-02-08T04:37:31.019Z,26.03
2024-02-08T04:40:16.733Z,21.50
2024-02-08T04:43:02.359Z,16.83
2024-02-08T04:45:48.323Z,9.77
2024-02-08T04:48:35.564Z,10.80
2024-02-08T04:51:21.025Z,11.10
2024-02-08T04:53:49.350Z,12.57
2024-02-08T04:56:19.960Z,11.93
2024-02-08T05:01:27.490Z,15.30
2024-02-08T05:03:59.451Z,15.30
2024-02-08T05:06:28.298Z,15.73
2024-02-08T05:09:00.905Z,15.87
2024-02-08T05:11:31.286Z,19.07
2024-02-08T05:14:03.066Z,16.77
2024-02-08T05:16:33.872Z,16.07
2024-02-08T05:19:05.410Z,18.40
2024-02-08T05:21:33.941Z,13.47
2024-02-08T05:24:02.828Z,16.80
2024-02-08T05:26:33.853Z,15.93
2024-02-08T05:29:02.368Z,17.07
2024-02-08T05:31:31.463Z,14.97
2024-02-08T05:34:00.644Z,17.10
2024-02-08T05:36:31.141Z,13.00
2024-02-08T05:38:59.484Z,10.57
2024-02-08T05:41:34.401Z,12.53
2024-02-08T05:44:06.574Z,12.80
2024-02-08T05:46:40.246Z,12.37
2024-02-08T05:49:15.015Z,12.67
2024-02-08T05:51:51.192Z,12.40
2024-02-08T05:54:21.952Z,14.60
2024-02-08T05:56:53.552Z,14.33
2024-02-08T05:59:22.625Z,17.40
2024-02-08T06:01:55.775Z,14.63
2024-02-08T06:04:26.022Z,11.67
2024-02-08T06:07:02.684Z,11.80
2024-02-08T06:09:50.289Z,14.50
2024-02-08T06:12:29.499Z,14.73
2024-02-08T06:15:00.763Z,13.63
2024-02-08T06:17:33.645Z,16.70
2024-02-08T06:20:10.261Z,15.17
2024-02-08T06:22:44.735Z,16.17
2024-02-08T06:25:29.275Z,15.23
2024-02-08T06:27:59.546Z,14.33
2024-02-08T06:30:32.850Z,13.77
2024-02-08T06:33:09.853Z,22.33
2024-02-08T06:35:41.146Z,13.07
2024-02-08T06:38:15.222Z,14.17
2024-02-08T06:40:52.600Z,14.27
2024-02-08T06:43:46.802Z,13.03
2024-02-08T06:46:19.711Z,12.63
2024-02-08T06:49:10.128Z,15.60
2024-02-08T06:51:56.228Z,15.10
2024-02-08T06:54:43.265Z,11.33
2024-02-08T06:57:28.967Z,13.73
2024-02-08T07:00:14.754Z,11.03
2024-02-08T07:03:00.318Z,10.30
2024-02-08T07:05:46.049Z,12.43
2024-02-08T07:08:31.864Z,12.23
2024-02-08T07:11:18.952Z,15.77
2024-02-08T07:14:04.727Z,16.30
2024-02-08T07:16:52.576Z,16.17
2024-02-08T07:19:38.200Z,16.30
2024-02-08T07:22:24.129Z,21.77
2024-02-08T07:25:09.733Z,21.60
2024-02-08T07:27:57.228Z,20.00
2024-02-08T07:30:43.277Z,23.50
2024-02-08T07:33:28.774Z,21.43
2024-02-08T07:36:14.489Z,23.23
2024-02-08T07:39:11.562Z,24.40
2024-02-08T07:41:41.717Z,22.37
2024-02-08T07:44:11.964Z,19.67
2024-02-08T07:46:43.890Z,21.63
2024-02-08T07:49:16.486Z,18.20
2024-02-08T07:51:51.637Z,21.23
2024-02-08T07:54:23.117Z,18.73
2024-02-08T07:56:55.170Z,18.97
2024-02-08T07:59:28.967Z,19.60
2024-02-08T08:01:59.151Z,20.97
2024-02-08T08:04:53.353Z,15.57
2024-02-08T08:07:25.762Z,17.87
2024-02-08T08:10:09.173Z,20.27
2024-02-08T08:12:38.892Z,18.70
2024-02-08T08:15:15.219Z,24.27
2024-02-08T08:17:44.792Z,26.33
2024-02-08T08:20:40.586Z,19.43
2024-02-08T08:23:09.685Z,17.93
2024-02-08T08:25:55.143Z,16.57
2024-02-08T08:28:42.362Z,16.40
2024-02-08T08:31:29.848Z,15.20
2024-02-08T08:34:01.769Z,16.03
2024-02-08T08:36:30.070Z,13.87
2024-02-08T08:39:21.883Z,15.87
2024-02-08T08:41:49.658Z,16.23
2024-02-08T08:44:20.154Z,15.13
2024-02-08T08:46:54.020Z,12.50
2024-02-08T08:49:23.856Z,16.33
2024-02-08T08:52:00.545Z,13.07
2024-02-08T08:54:31.427Z,14.27
2024-02-08T08:56:59.828Z,15.33
2024-02-08T08:59:30.722Z,16.77
2024-02-08T09:02:02.192Z,13.13
2024-02-08T09:04:37.716Z,20.00
2024-02-08T09:07:12.720Z,12.53
2024-02-08T09:10:02.771Z,13.23
2024-02-08T09:12:38.288Z,12.47
2024-02-08T09:15:28.263Z,11.50
2024-02-08T09:18:10.081Z,13.33
2024-02-08T09:20:39.545Z,11.77
2024-02-08T09:23:15.501Z,11.87
2024-02-08T09:25:46.440Z,12.77
2024-02-08T09:28:27.488Z,9.60
2024-02-08T09:30:58.719Z,12.93
2024-02-08T09:33:42.844Z,14.67
2024-02-08T09:36:15.136Z,10.13
2024-02-08T09:38:47.913Z,9.00
2024-02-08T09:41:25.467Z,9.77
2024-02-08T09:43:59.010Z,11.03
2024-02-08T09:46:50.756Z,7.97
2024-02-08T09:49:23.647Z,7.47
2024-02-08T09:51:55.972Z,10.40
2024-02-08T09:54:33.741Z,13.37
2024-02-08T09:57:23.100Z,7.90
2024-02-08T10:00:07.993Z,12.67
2024-02-08T10:02:55.836Z,11.03
2024-02-08T10:05:45.516Z,10.47
2024-02-08T10:08:28.630Z,11.13
2024-02-08T10:11:12.938Z,11.10
2024-02-08T10:13:55.133Z,14.57
2024-02-08T10:16:32.321Z,9.67
2024-02-08T10:19:05.776Z,13.63
2024-02-08T10:21:38.006Z,10.03
2024-02-08T10:24:27.123Z,15.63
2024-02-08T10:27:00.263Z,9.10
2024-02-08T10:29:33.951Z,10.07
2024-02-08T10:32:02.728Z,10.37
2024-02-08T10:34:42.019Z,10.77
2024-02-08T10:37:37.093Z,12.70
2024-02-08T10:40:27.475Z,9.63
2024-02-08T10:43:00.418Z,8.20
2024-02-08T10:45:33.847Z,6.93
2024-02-08T10:48:04.948Z,10.67
2024-02-08T10:50:36.077Z,11.87
2024-02-08T10:53:17.496Z,8.43
2024-02-08T10:55:53.922Z,7.90
2024-02-08T10:58:29.304Z,6.27
2024-02-08T11:01:14.657Z,13.00
2024-02-08T11:03:54.945Z,9.53
2024-02-08T11:06:31.044Z,10.00
2024-02-08T11:09:19.797Z,10.73
2024-02-08T11:12:00.757Z,8.30
2024-02-08T11:14:33.953Z,8.57
2024-02-08T11:17:06.432Z,11.80
2024-02-08T11:19:41.119Z,8.37
2024-02-08T11:22:36.447Z,6.83
2024-02-08T11:25:34.997Z,6.33
2024-02-08T11:28:22.709Z,7.13
2024-02-08T11:30:55.566Z,6.77
2024-02-08T11:33:33.308Z,8.70
2024-02-08T11:36:14.613Z,7.53
2024-02-08T11:38:48.397Z,8.30
2024-02-08T11:41:21.870Z,7.03
2024-02-08T11:44:04.806Z,6.97
2024-02-08T11:46:39.735Z,7.33
2024-02-08T11:49:16.475Z,6.67
2024-02-08T11:51:47.127Z,6.20
2024-02-08T11:54:29.004Z,4.70
2024-02-08T11:57:00.028Z,5.23
2024-02-08T11:59:28.584Z,5.13
2024-02-08T12:02:00.060Z,6.20
2024-02-08T12:04:29.912Z,6.27
2024-02-08T12:07:04.396Z,6.27
2024-02-08T12:09:33.732Z,6.90
2024-02-08T12:12:05.724Z,5.47
2024-02-08T12:14:34.160Z,5.57
2024-02-08T12:17:03.574Z,6.37
2024-02-08T12:19:32.569Z,10.27
2024-02-08T12:22:05.602Z,7.37
2024-02-08T12:24:36.589Z,6.30
2024-02-08T12:27:16.389Z,7.80
2024-02-08T12:29:51.989Z,9.00
2024-02-08T12:32:21.196Z,9.30
2024-02-08T12:34:51.050Z,8.30
2024-02-08T12:37:21.206Z,8.70
2024-02-08T12:39:51.059Z,7.93
2024-02-08T12:42:25.013Z,8.43
2024-02-08T12:44:53.624Z,8.83
2024-02-08T12:47:24.812Z,9.83
2024-02-08T12:49:54.957Z,7.67
2024-02-08T12:52:24.164Z,8.40
2024-02-08T12:54:56.015Z,9.37
2024-02-08T12:57:27.111Z,6.87
2024-02-08T13:00:03.775Z,7.27
2024-02-08T13:02:35.132Z,11.87
2024-02-08T13:05:05.120Z,11.17
2024-02-08T13:07:38.762Z,9.67
2024-02-08T13:10:16.193Z,8.60
2024-02-08T13:12:47.331Z,6.87
2024-02-08T13:15:23.590Z,9.33
2024-02-08T13:17:53.151Z,9.67
2024-02-08T13:20:25.108Z,9.47
2024-02-08T13:22:56.147Z,8.57
2024-02-08T13:25:29.817Z,7.43
2024-02-08T13:28:00.467Z,8.50
2024-02-08T13:30:31.303Z,7.17
2024-02-08T13:33:00.441Z,6.60
2024-02-08T13:35:30.354Z,10.73
2024-02-08T13:38:00.992Z,11.27
2024-02-08T13:40:29.519Z,8.93
2024-02-08T13:43:00.091Z,10.13
2024-02-08T13:45:33.359Z,9.40
2024-02-08T13:48:04.947Z,11.00
2024-02-08T13:50:34.944Z,7.23
2024-02-08T13:53:05.118Z,9.37
2024-02-08T13:58:08.912Z,8.47
2024-02-08T14:00:37.837Z,6.50
2024-02-08T14:03:10.046Z,10.20
2024-02-08T14:05:41.083Z,9.63
2024-02-08T14:08:18.880Z,12.00
2024-02-08T14:10:48.874Z,8.60
2024-02-08T14:13:30.873Z,11.73
2024-02-08T14:16:07.169Z,11.80
2024-02-08T14:18:39.947Z,10.47
2024-02-08T14:21:11.880Z,10.93
2024-02-08T14:23:42.685Z,10.23
2024-02-08T14:26:31.631Z,10.03
2024-02-08T14:29:02.116Z,9.30
2024-02-08T14:31:30.552Z,10.97
2024-02-08T14:33:58.977Z,11.83
2024-02-08T14:36:28.582Z,8.73
2024-02-08T14:38:57.323Z,10.80
2024-02-08T14:41:34.878Z,6.83
2024-02-08T14:44:10.369Z,7.97
2024-02-08T14:46:42.018Z,10.47
2024-02-08T14:49:28.080Z,8.97
2024-02-08T14:52:02.001Z,10.80
2024-02-08T14:54:30.532Z,11.23
2024-02-08T14:57:11.700Z,10.30
2024-02-08T14:59:46.802Z,11.73
2024-02-08T15:02:14.963Z,11.10
2024-02-08T15:04:47.187Z,11.03
2024-02-08T15:07:29.899Z,9.10
2024-02-08T15:09:59.370Z,10.23
2024-02-08T15:12:32.367Z,13.67
2024-02-08T15:15:06.358Z,11.37
2024-02-08T15:17:44.488Z,8.70
2024-02-08T15:20:31.193Z,10.10
2024-02-08T15:23:12.007Z,11.40
2024-02-08T15:25:45.407Z,8.97
2024-02-08T15:28:38.261Z,13.63
2024-02-08T15:31:37.979Z,8.93
2024-02-08T15:34:22.167Z,8.53
2024-02-08T15:36:52.536Z,12.13
2024-02-08T15:39:28.502Z,11.33
2024-02-08T15:42:02.955Z,6.80
2024-02-08T15:44:43.906Z,6.80
2024-02-08T15:47:17.226Z,7.97
2024-02-08T15:49:46.091Z,8.53
2024-02-08T15:52:17.395Z,11.77
2024-02-08T15:54:52.289Z,11.57
2024-02-08T15:57:24.486Z,5.23
2024-02-08T15:59:58.616Z,11.73
2024-02-08T16:02:27.948Z,7.50
2024-02-08T16:05:13.487Z,7.63
2024-02-08T16:07:44.275Z,9.77
2024-02-08T16:10:25.649Z,13.40
2024-02-08T16:13:06.736Z,10.43
2024-02-08T16:15:51.256Z,12.47
2024-02-08T16:18:27.138Z,12.47
2024-02-08T16:20:56.878Z,13.03
2024-02-08T16:23:28.479Z,13.13
2024-02-08T16:26:07.805Z,10.87
2024-02-08T16:28:46.892Z,10.23
2024-02-08T16:31:26.546Z,9.77
2024-02-08T16:34:09.540Z,10.37
2024-02-08T16:36:46.833Z,11.80
2024-02-08T16:39:31.518Z,12.63
2024-02-08T16:42:02.366Z,8.93
2024-02-08T16:44:39.700Z,14.57
2024-02-08T16:47:11.884Z,18.40
2024-02-08T16:49:43.880Z,15.33
2024-02-08T16:52:20.810Z,16.67
2024-02-08T16:55:01.613Z,24.30
2024-02-08T16:57:32.934Z,18.30
2024-02-08T17:00:22.622Z,15.23
2024-02-08T17:03:06.015Z,13.73
2024-02-08T17:05:54.428Z,16.37
2024-02-08T17:08:23.580Z,17.03
2024-02-08T17:10:58.550Z,15.50
2024-02-08T17:13:46.274Z,17.27
2024-02-08T17:16:36.841Z,12.23
2024-02-08T17:19:31.324Z,14.27
2024-02-08T17:22:40.751Z,15.03
2024-02-08T17:25:26.639Z,12.43
2024-02-08T17:28:08.032Z,16.77
2024-02-08T17:31:05.917Z,20.50
2024-02-08T17:33:48.310Z,16.93
2024-02-08T17:36:17.064Z,17.90
2024-02-08T17:38:46.921Z,18.17
2024-02-08T17:41:20.417Z,15.73
2024-02-08T17:43:56.724Z,15.43
2024-02-08T17:46:25.981Z,18.93
2024-02-08T17:48:56.779Z,17.97
2024-02-08T17:51:38.874Z,20.87
2024-02-08T17:54:22.772Z,20.23
2024-02-08T17:56:52.380Z,23.53
2024-02-08T17:59:20.830Z,17.67
2024-02-08T18:01:57.267Z,18.50
2024-02-08T18:04:29.272Z,20.70
2024-02-08T18:07:00.205Z,18.57
2024-02-08T18:09:34.289Z,16.07
2024-02-08T18:12:13.977Z,20.67
2024-02-08T18:14:43.451Z,19.40
2024-02-08T18:17:20.444Z,21.47
2024-02-08T18:19:50.394Z,24.33
2024-02-08T18:22:22.916Z,19.70
2024-02-08T18:24:51.701Z,24.77
2024-02-08T18:27:23.760Z,19.20
2024-02-08T18:29:52.689Z,22.53
2024-02-08T18:32:21.141Z,19.40
2024-02-08T18:34:51.314Z,21.87
2024-02-08T18:37:26.532Z,25.23
2024-02-08T18:39:57.582Z,18.37
2024-02-08T18:42:28.832Z,23.13
2024-02-08T18:44:58.134Z,19.20
2024-02-08T18:47:30.228Z,24.00
2024-02-08T18:50:00.685Z,15.60
2024-02-08T18:52:32.191Z,20.53
2024-02-08T18:55:10.488Z,24.97
2024-02-08T18:57:38.998Z,19.60
2024-02-08T19:00:14.886Z,18.10
2024-02-08T19:02:44.025Z,17.43
2024-02-08T19:05:17.183Z,18.53
2024-02-08T19:07:47.750Z,15.73
2024-02-08T19:10:17.546Z,22.57
2024-02-08T19:12:48.293Z,18.97
2024-02-08T19:15:23.678Z,18.50
2024-02-08T19:18:00.248Z,18.57
2024-02-08T19:20:34.896Z,17.43
2024-02-08T19:23:06.842Z,18.47
2024-02-08T19:25:37.605Z,23.77
2024-02-08T19:28:08.015Z,28.97
2024-02-08T19:30:36.616Z,24.50
2024-02-08T19:33:06.730Z,24.80
2024-02-08T19:35:37.676Z,30.97
2024-02-08T19:38:06.444Z,29.57
2024-02-08T19:40:36.373Z,27.20
2024-02-08T19:43:06.472Z,32.80
2024-02-08T19:45:34.825Z,32.80
2024-02-08T19:48:04.266Z,31.33
2024-02-08T19:50:36.513Z,35.10
2024-02-08T19:53:07.561Z,29.30
2024-02-08T19:55:40.230Z,34.33
2024-02-08T19:58:09.741Z,33.47
2024-02-08T20:00:39.286Z,35.10
2024-02-08T20:03:17.665Z,33.83
2024-02-08T20:05:48.323Z,34.17
2024-02-08T20:08:17.772Z,32.57
2024-02-08T20:10:48.102Z,39.77
2024-02-08T20:13:19.436Z,36.50
2024-02-08T20:15:49.339Z,37.70
2024-02-08T20:18:19.797Z,38.47
2024-02-08T20:20:51.676Z,37.20
2024-02-08T20:23:33.671Z,44.97
2024-02-08T20:26:09.734Z,36.30
2024-02-08T20:28:38.465Z,40.17
2024-02-08T20:31:18.134Z,35.30
2024-02-08T20:33:46.657Z,37.30
2024-02-08T20:36:17.183Z,36.70
2024-02-08T20:38:45.626Z,34.63
2024-02-08T20:41:16.145Z,35.43
2024-02-08T20:43:49.869Z,34.80
2024-02-08T20:46:18.669Z,41.53
2024-02-08T20:48:47.396Z,40.83
2024-02-08T20:51:17.199Z,37.23
2024-02-08T20:53:45.715Z,35.00
2024-02-08T20:56:24.019Z,37.53
2024-02-08T20:58:52.554Z,33.73
2024-02-08T21:01:21.642Z,37.33
2024-02-08T21:03:51.531Z,35.33
2024-02-08T21:06:23.538Z,34.17
2024-02-08T21:08:52.428Z,34.77
2024-02-08T21:11:22.561Z,36.00
2024-02-08T21:13:56.023Z,37.30
2024-02-08T21:16:24.526Z,30.30
2024-02-08T21:18:53.135Z,29.87
2024-02-08T21:21:21.562Z,33.80
2024-02-08T21:23:49.964Z,40.17
2024-02-08T21:26:19.853Z,31.70
2024-02-08T21:28:52.545Z,33.50
2024-02-08T21:31:25.104Z,35.27
2024-02-08T21:33:54.165Z,36.50
2024-02-08T21:36:26.370Z,33.87
2024-02-08T21:38:54.996Z,36.70
2024-02-08T21:41:23.330Z,37.97
2024-02-08T21:43:52.934Z,37.00
2024-02-08T21:46:23.012Z,28.70
2024-02-08T21:48:51.799Z,33.47
2024-02-08T21:51:20.154Z,38.27
2024-02-08T21:53:49.714Z,31.60
2024-02-08T21:56:20.032Z,32.00
2024-02-08T21:58:48.838Z,32.57
2024-02-08T22:01:36.842Z,33.20
2024-02-08T22:04:06.324Z,36.47
2024-02-08T22:06:35.017Z,34.77
2024-02-08T22:09:10.871Z,32.43
2024-02-08T22:11:49.872Z,33.03
2024-02-08T22:14:18.733Z,34.53
2024-02-08T22:16:48.864Z,30.90
2024-02-08T22:19:17.450Z,36.93
2024-02-08T22:21:46.962Z,30.90
2024-02-08T22:24:15.739Z,32.27
2024-02-08T22:26:49.105Z,32.97
2024-02-08T22:29:17.872Z,29.63
2024-02-08T22:31:47.936Z,31.77
2024-02-08T22:34:17.891Z,31.10
2024-02-08T22:36:46.543Z,38.53
2024-02-08T22:39:17.542Z,37.17
2024-02-08T22:41:49.273Z,35.23
2024-02-08T22:44:18.170Z,35.30
2024-02-08T22:46:46.861Z,36.37
2024-02-08T22:49:15.801Z,32.70
2024-02-08T22:51:48.744Z,37.30
2024-02-08T22:54:18.565Z,33.40
2024-02-08T22:56:51.177Z,36.83
2024-02-08T22:59:21.781Z,43.50
2024-02-08T23:01:54.919Z,34.70
2024-02-08T23:04:24.453Z,33.90
2024-02-08T23:06:54.471Z,37.70
2024-02-08T23:09:22.913Z,34.60
2024-02-08T23:11:51.853Z,31.80
2024-02-08T23:14:22.690Z,31.00
2024-02-08T23:16:53.062Z,34.47
2024-02-08T23:19:22.296Z,32.23
2024-02-08T23:21:53.855Z,36.63
2024-02-08T23:24:25.117Z,34.43
2024-02-08T23:26:54.193Z,27.10
2024-02-08T23:29:23.800Z,39.13
2024-02-08T23:31:52.925Z,36.20
2024-02-08T23:34:21.608Z,40.77
2024-02-08T23:36:56.033Z,37.00
2024-02-08T23:39:29.298Z,35.80
2024-02-08T23:41:58.790Z,31.23
2024-02-08T23:44:29.868Z,31.90
2024-02-08T23:46:58.380Z,32.80
2024-02-08T23:49:27.483Z,31.57
2024-02-08T23:51:57.061Z,38.83
2024-02-08T23:54:27.251Z,30.53
2024-02-08T23:56:56.567Z,34.77
2024-02-08T23:59:25.057Z,37.30
